This is the latest recevied weather packets stored in our database for station/object EA1DB-1. If no packets are shown the sender has not sent any weather packets the latest 10 day(s).
| Time | Temp. | Humidity | Pressure | Rain* | Wind** | Luminosity | Snow |
|---|---|---|---|---|---|---|---|
| 1777440706 | 15° C | 83% | 1001.4 hPa | 0 mm | - | - | - |
| 1777438305 | 15° C | 81% | 1001.5 hPa | 0 mm | - | - | - |
| 1777435905 | 15.56° C | 80% | 1001.6 hPa | 0 mm | - | - | - |
| 1777431105 | 15.56° C | 79% | 1002.2 hPa | 0 mm | - | - | - |
| 1777422081 | 16.11° C | 76% | 1003.3 hPa | 0 mm | - | - | - |
| 1777421505 | 16.11° C | 75% | 1003.3 hPa | 0 mm | - | - | - |
| 1777413721 | 17.22° C | 71% | 1003.7 hPa | 0 mm | - | - | - |
| 1777411281 | 16.67° C | 73% | 1003.6 hPa | 0 mm | - | - | - |
| 1777410705 | 17.22° C | 72% | 1003.6 hPa | 0 mm | - | - | - |
| 1777403505 | 16.67° C | 78% | 1005 hPa | 0 mm | - | - | - |
| 1777400481 | 16.67° C | 77% | 1005.5 hPa | 0 mm | - | - | - |
| 1777398726 | 16.67° C | 77% | 1005.6 hPa | 0 mm | - | - | - |
| 1777398081 | 17.22° C | 74% | 1005.7 hPa | 0 mm | - | - | - |
| 1777395105 | 18.89° C | 60% | 1005.6 hPa | 0 mm | - | - | - |
| 1777390881 | 22.22° C | 55% | 1003.7 hPa | 0 mm | - | - | - |
| 1777389125 | 24.44° C | 49% | 1003.6 hPa | 0 mm | - | - | - |
| 1777388481 | 25° C | 46% | 1003.6 hPa | 0 mm | - | - | - |
| 1777387905 | 24.44° C | 48% | 1003.8 hPa | 0 mm | - | - | - |
| 1777385505 | 25° C | 44% | 1004.2 hPa | 0 mm | - | - | - |
| 1777383105 | 26.67° C | 43% | 1004.3 hPa | 0 mm | - | - | - |
| 1777382481 | 26.67° C | 42% | 1004.4 hPa | 0 mm | - | - | - |
| 1777381905 | 26.67° C | 42% | 1004.4 hPa | 0 mm | - | - | - |
| 1777381281 | 26.67° C | 41% | 1004.6 hPa | 0 mm | - | - | - |
| 1777378305 | 26.11° C | 42% | 1005 hPa | 0 mm | - | - | - |
| 1777377106 | 26.11° C | 41% | 1005.2 hPa | 0 mm | - | - | - |
* Rain latest hour (hover to see other rain measurements)
** Current wind speed in m/s (hover to see current wind gust speed)